sensor_id;sensor_type;location;lat;lon;timestamp;temperature;humidity
51305;HTU21D;37392;50.964;6.952;2023-02-19T00:01:35;10.22;2.45
51305;HTU21D;37392;50.964;6.952;2023-02-19T00:04:06;10.23;2.13
51305;HTU21D;37392;50.964;6.952;2023-02-19T00:06:37;10.19;1.81
51305;HTU21D;37392;50.964;6.952;2023-02-19T00:09:04;10.25;1.46
51305;HTU21D;37392;50.964;6.952;2023-02-19T00:11:32;10.28;1.89
51305;HTU21D;37392;50.964;6.952;2023-02-19T00:13:59;10.23;1.70
51305;HTU21D;37392;50.964;6.952;2023-02-19T00:16:28;10.24;1.39
51305;HTU21D;37392;50.964;6.952;2023-02-19T00:18:56;10.24;1.62
51305;HTU21D;37392;50.964;6.952;2023-02-19T00:21:23;10.23;2.12
51305;HTU21D;37392;50.964;6.952;2023-02-19T00:23:51;10.23;2.40
51305;HTU21D;37392;50.964;6.952;2023-02-19T00:26:20;10.23;2.68
51305;HTU21D;37392;50.964;6.952;2023-02-19T00:28:47;10.22;2.83
51305;HTU21D;37392;50.964;6.952;2023-02-19T00:31:29;10.18;2.63
51305;HTU21D;37392;50.964;6.952;2023-02-19T00:34:08;10.18;2.72
51305;HTU21D;37392;50.964;6.952;2023-02-19T00:36:36;10.11;2.62
51305;HTU21D;37392;50.964;6.952;2023-02-19T00:39:04;10.14;2.56
51305;HTU21D;37392;50.964;6.952;2023-02-19T00:41:31;10.11;2.62
51305;HTU21D;37392;50.964;6.952;2023-02-19T00:44:05;10.10;2.71
51305;HTU21D;37392;50.964;6.952;2023-02-19T00:46:34;10.12;2.91
51305;HTU21D;37392;50.964;6.952;2023-02-19T00:49:05;10.11;2.79
51305;HTU21D;37392;50.964;6.952;2023-02-19T00:51:34;10.09;3.08
51305;HTU21D;37392;50.964;6.952;2023-02-19T00:54:02;10.11;2.96
51305;HTU21D;37392;50.964;6.952;2023-02-19T00:56:28;10.10;2.79
51305;HTU21D;37392;50.964;6.952;2023-02-19T00:58:54;10.10;2.97
51305;HTU21D;37392;50.964;6.952;2023-02-19T01:01:20;10.12;2.51
51305;HTU21D;37392;50.964;6.952;2023-02-19T01:03:47;10.08;2.39
51305;HTU21D;37392;50.964;6.952;2023-02-19T01:06:15;10.10;2.75
51305;HTU21D;37392;50.964;6.952;2023-02-19T01:08:42;10.11;2.38
51305;HTU21D;37392;50.964;6.952;2023-02-19T01:11:09;10.11;2.13
51305;HTU21D;37392;50.964;6.952;2023-02-19T01:13:36;10.14;1.56
51305;HTU21D;37392;50.964;6.952;2023-02-19T01:16:13;10.14;1.41
51305;HTU21D;37392;50.964;6.952;2023-02-19T01:18:41;10.13;1.64
51305;HTU21D;37392;50.964;6.952;2023-02-19T01:21:12;10.11;1.58
51305;HTU21D;37392;50.964;6.952;2023-02-19T01:23:39;10.12;1.22
51305;HTU21D;37392;50.964;6.952;2023-02-19T01:26:07;10.14;1.29
51305;HTU21D;37392;50.964;6.952;2023-02-19T01:28:34;10.16;1.03
51305;HTU21D;37392;50.964;6.952;2023-02-19T01:31:05;10.19;0.44
51305;HTU21D;37392;50.964;6.952;2023-02-19T01:33:33;10.24;-0.06
51305;HTU21D;37392;50.964;6.952;2023-02-19T01:36:03;10.23;0.32
51305;HTU21D;37392;50.964;6.952;2023-02-19T01:38:29;10.22;-0.03
51305;HTU21D;37392;50.964;6.952;2023-02-19T01:40:59;10.24;0.30
51305;HTU21D;37392;50.964;6.952;2023-02-19T01:43:26;10.29;-0.42
51305;HTU21D;37392;50.964;6.952;2023-02-19T01:45:52;10.24;-0.78
51305;HTU21D;37392;50.964;6.952;2023-02-19T01:48:35;10.27;-1.09
51305;HTU21D;37392;50.964;6.952;2023-02-19T01:51:13;10.28;-1.54
51305;HTU21D;37392;50.964;6.952;2023-02-19T01:53:45;10.29;-1.56
51305;HTU21D;37392;50.964;6.952;2023-02-19T01:56:14;10.29;-1.96
51305;HTU21D;37392;50.964;6.952;2023-02-19T01:58:42;10.34;-2.41
51305;HTU21D;37392;50.964;6.952;2023-02-19T02:01:08;10.37;-2.80
51305;HTU21D;37392;50.964;6.952;2023-02-19T02:03:39;10.37;-2.35
51305;HTU21D;37392;50.964;6.952;2023-02-19T02:06:29;10.40;-2.13
51305;HTU21D;37392;50.964;6.952;2023-02-19T02:09:00;10.43;-3.11
51305;HTU21D;37392;50.964;6.952;2023-02-19T02:11:48;10.41;-3.21
51305;HTU21D;37392;50.964;6.952;2023-02-19T02:14:17;10.42;-2.86
51305;HTU21D;37392;50.964;6.952;2023-02-19T02:16:56;10.39;-2.51
51305;HTU21D;37392;50.964;6.952;2023-02-19T02:31:09;10.36;-2.87
51305;HTU21D;37392;50.964;6.952;2023-02-19T02:36:17;10.38;-2.85
51305;HTU21D;37392;50.964;6.952;2023-02-19T02:38:45;10.38;-2.65
51305;HTU21D;37392;50.964;6.952;2023-02-19T02:41:13;10.35;-2.12
51305;HTU21D;37392;50.964;6.952;2023-02-19T02:43:39;10.33;-2.38
51305;HTU21D;37392;50.964;6.952;2023-02-19T02:46:05;10.33;-2.13
51305;HTU21D;37392;50.964;6.952;2023-02-19T02:48:54;10.27;-1.81
51305;HTU21D;37392;50.964;6.952;2023-02-19T02:51:44;10.27;-1.87
51305;HTU21D;37392;50.964;6.952;2023-02-19T02:54:25;10.28;-1.67
51305;HTU21D;37392;50.964;6.952;2023-02-19T02:57:13;10.29;-2.27
51305;HTU21D;37392;50.964;6.952;2023-02-19T02:59:40;10.29;-1.46
51305;HTU21D;37392;50.964;6.952;2023-02-19T03:02:08;10.28;-1.22
51305;HTU21D;37392;50.964;6.952;2023-02-19T03:04:51;10.28;-1.54
51305;HTU21D;37392;50.964;6.952;2023-02-19T03:08:06;10.28;-1.64
51305;HTU21D;37392;50.964;6.952;2023-02-19T03:10:44;10.28;-1.32
51305;HTU21D;37392;50.964;6.952;2023-02-19T03:13:28;10.30;-1.06
51305;HTU21D;37392;50.964;6.952;2023-02-19T03:16:29;10.31;-1.51
51305;HTU21D;37392;50.964;6.952;2023-02-19T03:19:16;10.33;-2.11
51305;HTU21D;37392;50.964;6.952;2023-02-19T03:21:51;10.36;-2.55
51305;HTU21D;37392;50.964;6.952;2023-02-19T03:24:22;10.34;-2.14
51305;HTU21D;37392;50.964;6.952;2023-02-19T03:27:09;10.34;-2.51
51305;HTU21D;37392;50.964;6.952;2023-02-19T03:29:39;10.38;-2.30
51305;HTU21D;37392;50.964;6.952;2023-02-19T03:32:19;10.36;-2.94
51305;HTU21D;37392;50.964;6.952;2023-02-19T03:35:05;10.38;-3.04
51305;HTU21D;37392;50.964;6.952;2023-02-19T03:37:39;10.37;-3.18
51305;HTU21D;37392;50.964;6.952;2023-02-19T03:40:07;10.39;-3.36
51305;HTU21D;37392;50.964;6.952;2023-02-19T03:45:23;10.39;-2.28
51305;HTU21D;37392;50.964;6.952;2023-02-19T03:48:21;10.37;-3.05
51305;HTU21D;37392;50.964;6.952;2023-02-19T03:51:03;10.33;-2.70
51305;HTU21D;37392;50.964;6.952;2023-02-19T03:53:46;10.30;-2.81
51305;HTU21D;37392;50.964;6.952;2023-02-19T03:56:29;10.36;-3.06
51305;HTU21D;37392;50.964;6.952;2023-02-19T03:59:08;10.33;-3.01
51305;HTU21D;37392;50.964;6.952;2023-02-19T04:01:55;10.35;-3.31
51305;HTU21D;37392;50.964;6.952;2023-02-19T04:04:31;10.30;-3.20
51305;HTU21D;37392;50.964;6.952;2023-02-19T04:07:04;10.28;-2.64
51305;HTU21D;37392;50.964;6.952;2023-02-19T04:09:34;10.31;-2.59
51305;HTU21D;37392;50.964;6.952;2023-02-19T04:12:03;10.31;-2.74
51305;HTU21D;37392;50.964;6.952;2023-02-19T04:14:37;10.37;-3.25
51305;HTU21D;37392;50.964;6.952;2023-02-19T04:17:12;10.35;-3.07
51305;HTU21D;37392;50.964;6.952;2023-02-19T04:19:44;10.33;-3.17
51305;HTU21D;37392;50.964;6.952;2023-02-19T04:22:12;10.24;-2.90
51305;HTU21D;37392;50.964;6.952;2023-02-19T04:24:45;10.26;-2.92
51305;HTU21D;37392;50.964;6.952;2023-02-19T04:27:13;10.19;-1.63
51305;HTU21D;37392;50.964;6.952;2023-02-19T04:29:39;10.16;-0.93
51305;HTU21D;37392;50.964;6.952;2023-02-19T04:32:05;10.15;-1.05
51305;HTU21D;37392;50.964;6.952;2023-02-19T04:34:31;10.09;-0.40
51305;HTU21D;37392;50.964;6.952;2023-02-19T04:36:58;10.05;0.01
51305;HTU21D;37392;50.964;6.952;2023-02-19T04:39:23;9.97;0.58
51305;HTU21D;37392;50.964;6.952;2023-02-19T04:41:49;9.92;0.68
51305;HTU21D;37392;50.964;6.952;2023-02-19T04:44:14;9.88;1.16
51305;HTU21D;37392;50.964;6.952;2023-02-19T04:46:40;9.88;1.41
51305;HTU21D;37392;50.964;6.952;2023-02-19T04:49:06;9.81;1.69
51305;HTU21D;37392;50.964;6.952;2023-02-19T04:51:31;9.80;1.72
51305;HTU21D;37392;50.964;6.952;2023-02-19T04:53:57;9.78;1.47
51305;HTU21D;37392;50.964;6.952;2023-02-19T04:56:23;9.74;1.89
51305;HTU21D;37392;50.964;6.952;2023-02-19T04:58:48;9.75;1.82
51305;HTU21D;37392;50.964;6.952;2023-02-19T05:01:14;9.70;2.22
51305;HTU21D;37392;50.964;6.952;2023-02-19T05:03:40;9.69;2.48
51305;HTU21D;37392;50.964;6.952;2023-02-19T05:06:07;9.69;2.80
51305;HTU21D;37392;50.964;6.952;2023-02-19T05:08:36;9.69;2.67
51305;HTU21D;37392;50.964;6.952;2023-02-19T05:11:04;9.70;2.64
51305;HTU21D;37392;50.964;6.952;2023-02-19T05:13:31;9.67;2.61
51305;HTU21D;37392;50.964;6.952;2023-02-19T05:15:58;9.64;3.09
51305;HTU21D;37392;50.964;6.952;2023-02-19T05:18:26;9.63;2.98
51305;HTU21D;37392;50.964;6.952;2023-02-19T05:20:52;9.64;3.25
51305;HTU21D;37392;50.964;6.952;2023-02-19T05:23:19;9.59;3.40
51305;HTU21D;37392;50.964;6.952;2023-02-19T05:25:45;9.60;3.32
51305;HTU21D;37392;50.964;6.952;2023-02-19T05:28:11;9.57;3.70
51305;HTU21D;37392;50.964;6.952;2023-02-19T05:30:49;9.56;4.04
51305;HTU21D;37392;50.964;6.952;2023-02-19T05:33:18;9.59;4.17
51305;HTU21D;37392;50.964;6.952;2023-02-19T05:35:46;9.59;4.11
51305;HTU21D;37392;50.964;6.952;2023-02-19T05:38:17;9.57;4.23
51305;HTU21D;37392;50.964;6.952;2023-02-19T05:40:43;9.57;4.06
51305;HTU21D;37392;50.964;6.952;2023-02-19T05:43:10;9.57;4.25
51305;HTU21D;37392;50.964;6.952;2023-02-19T05:45:36;9.55;4.22
51305;HTU21D;37392;50.964;6.952;2023-02-19T05:48:03;9.56;3.96
51305;HTU21D;37392;50.964;6.952;2023-02-19T05:50:31;9.56;3.80
51305;HTU21D;37392;50.964;6.952;2023-02-19T05:53:01;9.52;3.92
51305;HTU21D;37392;50.964;6.952;2023-02-19T05:55:28;9.49;3.95
51305;HTU21D;37392;50.964;6.952;2023-02-19T05:57:54;9.49;4.13
51305;HTU21D;37392;50.964;6.952;2023-02-19T06:00:20;9.48;3.86
51305;HTU21D;37392;50.964;6.952;2023-02-19T06:02:46;9.45;3.74
51305;HTU21D;37392;50.964;6.952;2023-02-19T06:05:12;9.45;3.44
51305;HTU21D;37392;50.964;6.952;2023-02-19T06:07:38;9.44;3.78
51305;HTU21D;37392;50.964;6.952;2023-02-19T06:10:06;9.40;4.04
51305;HTU21D;37392;50.964;6.952;2023-02-19T06:12:32;9.37;4.20
51305;HTU21D;37392;50.964;6.952;2023-02-19T06:14:57;9.36;4.12
51305;HTU21D;37392;50.964;6.952;2023-02-19T06:17:23;9.38;4.24
51305;HTU21D;37392;50.964;6.952;2023-02-19T06:19:49;9.40;4.32
51305;HTU21D;37392;50.964;6.952;2023-02-19T06:22:15;9.39;4.48
51305;HTU21D;37392;50.964;6.952;2023-02-19T06:24:41;9.38;4.59
51305;HTU21D;37392;50.964;6.952;2023-02-19T06:27:07;9.42;4.62
51305;HTU21D;37392;50.964;6.952;2023-02-19T06:29:33;9.39;4.54
51305;HTU21D;37392;50.964;6.952;2023-02-19T06:32:02;9.35;4.48
51305;HTU21D;37392;50.964;6.952;2023-02-19T06:34:29;9.34;4.41
51305;HTU21D;37392;50.964;6.952;2023-02-19T06:36:54;9.35;4.31
51305;HTU21D;37392;50.964;6.952;2023-02-19T06:39:20;9.35;4.15
51305;HTU21D;37392;50.964;6.952;2023-02-19T06:41:46;9.34;4.04
51305;HTU21D;37392;50.964;6.952;2023-02-19T06:44:11;9.31;3.94
51305;HTU21D;37392;50.964;6.952;2023-02-19T06:46:37;9.31;3.99
51305;HTU21D;37392;50.964;6.952;2023-02-19T06:49:03;9.31;3.90
51305;HTU21D;37392;50.964;6.952;2023-02-19T06:51:30;9.30;4.22
51305;HTU21D;37392;50.964;6.952;2023-02-19T06:53:57;9.31;3.99
51305;HTU21D;37392;50.964;6.952;2023-02-19T06:56:29;9.33;3.94
51305;HTU21D;37392;50.964;6.952;2023-02-19T06:58:58;9.32;4.04
51305;HTU21D;37392;50.964;6.952;2023-02-19T07:01:26;9.37;4.06
51305;HTU21D;37392;50.964;6.952;2023-02-19T07:03:52;9.33;4.06
51305;HTU21D;37392;50.964;6.952;2023-02-19T07:06:22;9.34;3.96
51305;HTU21D;37392;50.964;6.952;2023-02-19T07:08:49;9.34;3.97
51305;HTU21D;37392;50.964;6.952;2023-02-19T07:11:16;9.36;3.95
51305;HTU21D;37392;50.964;6.952;2023-02-19T07:13:43;9.36;4.06
51305;HTU21D;37392;50.964;6.952;2023-02-19T07:16:10;9.36;4.00
51305;HTU21D;37392;50.964;6.952;2023-02-19T07:18:37;9.39;3.97
51305;HTU21D;37392;50.964;6.952;2023-02-19T07:21:04;9.42;3.22
51305;HTU21D;37392;50.964;6.952;2023-02-19T07:23:31;9.40;2.70
51305;HTU21D;37392;50.964;6.952;2023-02-19T07:25:57;9.38;2.55
51305;HTU21D;37392;50.964;6.952;2023-02-19T07:28:23;9.37;2.53
51305;HTU21D;37392;50.964;6.952;2023-02-19T07:30:49;9.38;3.19
51305;HTU21D;37392;50.964;6.952;2023-02-19T07:33:14;9.39;3.35
51305;HTU21D;37392;50.964;6.952;2023-02-19T07:35:47;9.41;3.30
51305;HTU21D;37392;50.964;6.952;2023-02-19T07:38:17;9.41;3.28
51305;HTU21D;37392;50.964;6.952;2023-02-19T07:41:00;9.44;2.95
51305;HTU21D;37392;50.964;6.952;2023-02-19T07:43:28;9.49;2.90
51305;HTU21D;37392;50.964;6.952;2023-02-19T07:45:55;9.46;2.96
51305;HTU21D;37392;50.964;6.952;2023-02-19T07:48:21;9.44;3.12
51305;HTU21D;37392;50.964;6.952;2023-02-19T07:51:07;9.44;3.13
51305;HTU21D;37392;50.964;6.952;2023-02-19T07:53:35;9.40;3.22
51305;HTU21D;37392;50.964;6.952;2023-02-19T07:56:03;9.47;3.32
51305;HTU21D;37392;50.964;6.952;2023-02-19T07:58:31;9.53;3.13
51305;HTU21D;37392;50.964;6.952;2023-02-19T08:01:15;9.63;3.49
51305;HTU21D;37392;50.964;6.952;2023-02-19T08:04:04;9.76;3.60
51305;HTU21D;37392;50.964;6.952;2023-02-19T08:06:29;9.81;3.66
51305;HTU21D;37392;50.964;6.952;2023-02-19T08:08:55;9.80;3.14
51305;HTU21D;37392;50.964;6.952;2023-02-19T08:11:22;9.77;2.29
51305;HTU21D;37392;50.964;6.952;2023-02-19T08:14:06;9.67;2.41
51305;HTU21D;37392;50.964;6.952;2023-02-19T08:16:32;9.62;2.51
51305;HTU21D;37392;50.964;6.952;2023-02-19T08:18:57;9.59;2.74
51305;HTU21D;37392;50.964;6.952;2023-02-19T08:21:23;9.57;2.89
51305;HTU21D;37392;50.964;6.952;2023-02-19T08:23:48;9.61;3.06
51305;HTU21D;37392;50.964;6.952;2023-02-19T08:26:16;9.57;2.49
51305;HTU21D;37392;50.964;6.952;2023-02-19T08:28:42;9.59;2.67
51305;HTU21D;37392;50.964;6.952;2023-02-19T08:31:10;9.63;3.17
51305;HTU21D;37392;50.964;6.952;2023-02-19T08:33:37;9.65;3.19
51305;HTU21D;37392;50.964;6.952;2023-02-19T08:36:05;9.74;3.57
51305;HTU21D;37392;50.964;6.952;2023-02-19T08:38:33;9.83;2.96
51305;HTU21D;37392;50.964;6.952;2023-02-19T08:41:11;9.92;2.89
51305;HTU21D;37392;50.964;6.952;2023-02-19T08:43:38;10.01;2.53
51305;HTU21D;37392;50.964;6.952;2023-02-19T08:46:05;9.96;1.77
51305;HTU21D;37392;50.964;6.952;2023-02-19T08:48:32;9.98;1.66
51305;HTU21D;37392;50.964;6.952;2023-02-19T08:50:59;10.11;0.92
51305;HTU21D;37392;50.964;6.952;2023-02-19T08:53:31;10.16;0.62
51305;HTU21D;37392;50.964;6.952;2023-02-19T08:55:57;10.28;0.96
51305;HTU21D;37392;50.964;6.952;2023-02-19T08:58:23;10.44;-0.11
51305;HTU21D;37392;50.964;6.952;2023-02-19T09:00:51;10.58;-0.52
51305;HTU21D;37392;50.964;6.952;2023-02-19T09:03:17;10.81;-1.01
51305;HTU21D;37392;50.964;6.952;2023-02-19T09:05:43;11.23;-0.98
51305;HTU21D;37392;50.964;6.952;2023-02-19T09:08:11;12.06;-0.64
51305;HTU21D;37392;50.964;6.952;2023-02-19T09:10:37;12.75;-4.36
51305;HTU21D;37392;50.964;6.952;2023-02-19T09:13:02;12.96;115.79
51305;HTU21D;37392;50.964;6.952;2023-02-19T09:15:28;12.80;113.57
51305;HTU21D;37392;50.964;6.952;2023-02-19T09:17:54;12.91;114.98
51305;HTU21D;37392;50.964;6.952;2023-02-19T09:20:19;12.87;113.36
51305;HTU21D;37392;50.964;6.952;2023-02-19T09:22:45;12.79;113.32
51305;HTU21D;37392;50.964;6.952;2023-02-19T09:25:11;12.71;112.79
51305;HTU21D;37392;50.964;6.952;2023-02-19T09:27:36;12.63;113.26
51305;HTU21D;37392;50.964;6.952;2023-02-19T09:30:02;12.38;113.90
51305;HTU21D;37392;50.964;6.952;2023-02-19T09:32:31;12.06;113.19
51305;HTU21D;37392;50.964;6.952;2023-02-19T09:34:58;11.94;114.44
51305;HTU21D;37392;50.964;6.952;2023-02-19T09:37:26;11.82;115.57
51305;HTU21D;37392;50.964;6.952;2023-02-19T09:39:53;11.67;114.26
51305;HTU21D;37392;50.964;6.952;2023-02-19T09:42:22;11.51;112.77
51305;HTU21D;37392;50.964;6.952;2023-02-19T09:44:52;11.60;114.56
51305;HTU21D;37392;50.964;6.952;2023-02-19T09:47:25;11.59;115.88
51305;HTU21D;37392;50.964;6.952;2023-02-19T09:49:59;11.56;113.48
51305;HTU21D;37392;50.964;6.952;2023-02-19T09:52:40;11.59;114.20
51305;HTU21D;37392;50.964;6.952;2023-02-19T09:57:39;11.68;112.70
51305;HTU21D;37392;50.964;6.952;2023-02-19T10:00:19;11.62;113.74
51305;HTU21D;37392;50.964;6.952;2023-02-19T10:02:51;11.53;112.62
51305;HTU21D;37392;50.964;6.952;2023-02-19T10:05:18;11.43;114.30
51305;HTU21D;37392;50.964;6.952;2023-02-19T10:07:46;11.29;116.01
51305;HTU21D;37392;50.964;6.952;2023-02-19T10:12:45;11.32;116.62
51305;HTU21D;37392;50.964;6.952;2023-02-19T10:15:18;11.43;118.24
51305;HTU21D;37392;50.964;6.952;2023-02-19T10:17:49;11.69;116.34
51305;HTU21D;37392;50.964;6.952;2023-02-19T10:20:18;11.83;116.51
51305;HTU21D;37392;50.964;6.952;2023-02-19T10:22:52;11.92;117.09
51305;HTU21D;37392;50.964;6.952;2023-02-19T10:25:24;11.96;115.23
51305;HTU21D;37392;50.964;6.952;2023-02-19T10:27:53;12.07;115.77
51305;HTU21D;37392;50.964;6.952;2023-02-19T10:30:23;12.08;113.93
51305;HTU21D;37392;50.964;6.952;2023-02-19T10:32:59;11.97;112.48
51305;HTU21D;37392;50.964;6.952;2023-02-19T10:35:34;11.87;112.13
51305;HTU21D;37392;50.964;6.952;2023-02-19T10:38:01;11.86;112.36
51305;HTU21D;37392;50.964;6.952;2023-02-19T10:40:28;12.10;112.68
51305;HTU21D;37392;50.964;6.952;2023-02-19T10:42:59;12.50;112.19
51305;HTU21D;37392;50.964;6.952;2023-02-19T10:45:38;12.61;109.95
51305;HTU21D;37392;50.964;6.952;2023-02-19T10:48:06;12.57;109.62
51305;HTU21D;37392;50.964;6.952;2023-02-19T10:51:09;12.31;112.22
51305;HTU21D;37392;50.964;6.952;2023-02-19T10:53:49;12.02;114.97
51305;HTU21D;37392;50.964;6.952;2023-02-19T10:56:23;12.01;117.55
51305;HTU21D;37392;50.964;6.952;2023-02-19T10:58:51;11.98;117.02
51305;HTU21D;37392;50.964;6.952;2023-02-19T11:01:22;11.85;114.69
51305;HTU21D;37392;50.964;6.952;2023-02-19T11:03:51;11.88;114.82
51305;HTU21D;37392;50.964;6.952;2023-02-19T11:06:24;12.03;116.59
51305;HTU21D;37392;50.964;6.952;2023-02-19T11:08:53;12.20;115.86
51305;HTU21D;37392;50.964;6.952;2023-02-19T11:11:27;12.17;113.52
51305;HTU21D;37392;50.964;6.952;2023-02-19T11:13:56;12.33;113.97
51305;HTU21D;37392;50.964;6.952;2023-02-19T11:16:23;12.69;114.04
51305;HTU21D;37392;50.964;6.952;2023-02-19T11:19:27;13.15;111.68
51305;HTU21D;37392;50.964;6.952;2023-02-19T11:21:53;13.34;108.93
51305;HTU21D;37392;50.964;6.952;2023-02-19T11:24:35;13.46;105.92
51305;HTU21D;37392;50.964;6.952;2023-02-19T11:27:12;13.74;105.59
51305;HTU21D;37392;50.964;6.952;2023-02-19T11:29:45;14.04;101.97
51305;HTU21D;37392;50.964;6.952;2023-02-19T11:32:37;14.22;100.48
51305;HTU21D;37392;50.964;6.952;2023-02-19T11:35:17;14.35;98.67
51305;HTU21D;37392;50.964;6.952;2023-02-19T11:38:00;14.28;98.98
51305;HTU21D;37392;50.964;6.952;2023-02-19T11:41:03;14.19;98.37
51305;HTU21D;37392;50.964;6.952;2023-02-19T11:44:01;14.10;98.39
51305;HTU21D;37392;50.964;6.952;2023-02-19T11:56:24;13.59;99.94
51305;HTU21D;37392;50.964;6.952;2023-02-19T12:05:31;13.92;97.60
51305;HTU21D;37392;50.964;6.952;2023-02-19T12:11:26;14.03;96.88
51305;HTU21D;37392;50.964;6.952;2023-02-19T12:20:19;14.21;95.07
51305;HTU21D;37392;50.964;6.952;2023-02-19T12:26:42;14.62;92.39
51305;HTU21D;37392;50.964;6.952;2023-02-19T12:29:30;14.65;91.51
51305;HTU21D;37392;50.964;6.952;2023-02-19T12:32:18;14.82;90.98
51305;HTU21D;37392;50.964;6.952;2023-02-19T12:38:19;14.87;89.63
51305;HTU21D;37392;50.964;6.952;2023-02-19T12:44:08;15.01;88.41
51305;HTU21D;37392;50.964;6.952;2023-02-19T12:47:15;15.22;87.87
51305;HTU21D;37392;50.964;6.952;2023-02-19T12:52:35;15.01;86.38
51305;HTU21D;37392;50.964;6.952;2023-02-19T12:55:33;14.68;86.77
51305;HTU21D;37392;50.964;6.952;2023-02-19T12:58:02;14.32;86.84
51305;HTU21D;37392;50.964;6.952;2023-02-19T13:00:42;14.23;87.35
51305;HTU21D;37392;50.964;6.952;2023-02-19T13:03:20;14.12;87.84
51305;HTU21D;37392;50.964;6.952;2023-02-19T13:06:35;14.01;87.84
51305;HTU21D;37392;50.964;6.952;2023-02-19T13:09:14;13.83;89.86
51305;HTU21D;37392;50.964;6.952;2023-02-19T13:12:01;13.56;94.10
51305;HTU21D;37392;50.964;6.952;2023-02-19T13:14:35;13.27;97.87
51305;HTU21D;37392;50.964;6.952;2023-02-19T13:17:15;13.04;100.63
51305;HTU21D;37392;50.964;6.952;2023-02-19T13:19:44;12.87;100.18
51305;HTU21D;37392;50.964;6.952;2023-02-19T13:25:14;12.79;99.40
51305;HTU21D;37392;50.964;6.952;2023-02-19T13:37:01;13.22;95.43
51305;HTU21D;37392;50.964;6.952;2023-02-19T13:39:27;13.22;93.24
51305;HTU21D;37392;50.964;6.952;2023-02-19T13:41:55;13.15;93.54
51305;HTU21D;37392;50.964;6.952;2023-02-19T13:44:28;13.16;93.90
51305;HTU21D;37392;50.964;6.952;2023-02-19T13:46:56;13.04;95.16
51305;HTU21D;37392;50.964;6.952;2023-02-19T13:51:54;12.76;96.71
51305;HTU21D;37392;50.964;6.952;2023-02-19T13:54:34;12.58;101.31
51305;HTU21D;37392;50.964;6.952;2023-02-19T13:59:49;12.35;104.11
51305;HTU21D;37392;50.964;6.952;2023-02-19T14:07:35;12.07;102.28
51305;HTU21D;37392;50.964;6.952;2023-02-19T14:10:03;12.11;101.48
51305;HTU21D;37392;50.964;6.952;2023-02-19T14:12:35;12.06;100.77
51305;HTU21D;37392;50.964;6.952;2023-02-19T14:17:48;11.89;100.70
51305;HTU21D;37392;50.964;6.952;2023-02-19T14:28:03;12.05;99.64
51305;HTU21D;37392;50.964;6.952;2023-02-19T14:30:51;12.12;99.32
51305;HTU21D;37392;50.964;6.952;2023-02-19T14:33:24;12.06;99.00
51305;HTU21D;37392;50.964;6.952;2023-02-19T14:36:36;11.99;99.64
51305;HTU21D;37392;50.964;6.952;2023-02-19T14:41:56;11.83;104.20
51305;HTU21D;37392;50.964;6.952;2023-02-19T14:44:28;11.78;106.23
51305;HTU21D;37392;50.964;6.952;2023-02-19T14:47:10;11.59;106.57
51305;HTU21D;37392;50.964;6.952;2023-02-19T14:52:35;11.32;110.79
51305;HTU21D;37392;50.964;6.952;2023-02-19T14:57:55;11.02;112.27
51305;HTU21D;37392;50.964;6.952;2023-02-19T15:00:28;10.90;113.35
51305;HTU21D;37392;50.964;6.952;2023-02-19T15:02:57;10.88;113.81
51305;HTU21D;37392;50.964;6.952;2023-02-19T15:05:29;10.79;113.63
51305;HTU21D;37392;50.964;6.952;2023-02-19T15:07:58;10.74;114.30
51305;HTU21D;37392;50.964;6.952;2023-02-19T15:10:29;10.71;114.67
51305;HTU21D;37392;50.964;6.952;2023-02-19T15:13:07;10.71;114.78
51305;HTU21D;37392;50.964;6.952;2023-02-19T15:15:38;10.71;114.18
51305;HTU21D;37392;50.964;6.952;2023-02-19T15:18:16;10.70;114.19
51305;HTU21D;37392;50.964;6.952;2023-02-19T15:20:44;10.73;112.34
51305;HTU21D;37392;50.964;6.952;2023-02-19T15:23:19;10.72;111.58
51305;HTU21D;37392;50.964;6.952;2023-02-19T15:25:47;10.71;110.13
51305;HTU21D;37392;50.964;6.952;2023-02-19T15:30:51;10.69;109.23
51305;HTU21D;37392;50.964;6.952;2023-02-19T15:33:30;10.71;109.20
51305;HTU21D;37392;50.964;6.952;2023-02-19T15:36:03;10.71;109.13
51305;HTU21D;37392;50.964;6.952;2023-02-19T15:38:30;10.70;107.50
51305;HTU21D;37392;50.964;6.952;2023-02-19T15:40:57;10.69;107.76
51305;HTU21D;37392;50.964;6.952;2023-02-19T15:43:35;10.72;107.93
51305;HTU21D;37392;50.964;6.952;2023-02-19T15:46:23;10.77;108.09
51305;HTU21D;37392;50.964;6.952;2023-02-19T15:49:03;10.73;107.53
51305;HTU21D;37392;50.964;6.952;2023-02-19T15:51:39;10.69;106.72
51305;HTU21D;37392;50.964;6.952;2023-02-19T15:54:29;10.68;106.93
51305;HTU21D;37392;50.964;6.952;2023-02-19T15:57:05;10.66;106.50
51305;HTU21D;37392;50.964;6.952;2023-02-19T15:59:55;10.62;106.50
51305;HTU21D;37392;50.964;6.952;2023-02-19T16:02:31;10.60;106.08
51305;HTU21D;37392;50.964;6.952;2023-02-19T16:05:00;10.57;106.74
51305;HTU21D;37392;50.964;6.952;2023-02-19T16:07:30;10.56;106.08
51305;HTU21D;37392;50.964;6.952;2023-02-19T16:10:25;10.53;105.45
51305;HTU21D;37392;50.964;6.952;2023-02-19T16:12:55;10.51;105.75
51305;HTU21D;37392;50.964;6.952;2023-02-19T16:15:21;10.52;105.95
51305;HTU21D;37392;50.964;6.952;2023-02-19T16:17:47;10.50;105.67
51305;HTU21D;37392;50.964;6.952;2023-02-19T16:20:39;10.50;105.42
51305;HTU21D;37392;50.964;6.952;2023-02-19T16:23:13;10.50;105.56
51305;HTU21D;37392;50.964;6.952;2023-02-19T16:25:43;10.48;104.95
51305;HTU21D;37392;50.964;6.952;2023-02-19T16:28:13;10.46;105.14
51305;HTU21D;37392;50.964;6.952;2023-02-19T16:30:43;10.45;105.27
51305;HTU21D;37392;50.964;6.952;2023-02-19T16:33:47;10.43;104.87
51305;HTU21D;37392;50.964;6.952;2023-02-19T16:41:33;10.38;104.69
51305;HTU21D;37392;50.964;6.952;2023-02-19T16:46:49;10.33;104.81
51305;HTU21D;37392;50.964;6.952;2023-02-19T16:49:17;10.30;104.81
51305;HTU21D;37392;50.964;6.952;2023-02-19T16:51:44;10.29;104.89
51305;HTU21D;37392;50.964;6.952;2023-02-19T16:54:11;10.26;104.42
51305;HTU21D;37392;50.964;6.952;2023-02-19T16:56:36;10.26;104.63
51305;HTU21D;37392;50.964;6.952;2023-02-19T16:59:02;10.27;104.78
51305;HTU21D;37392;50.964;6.952;2023-02-19T17:01:29;10.23;104.60
51305;HTU21D;37392;50.964;6.952;2023-02-19T17:03:58;10.28;104.15
51305;HTU21D;37392;50.964;6.952;2023-02-19T17:06:25;10.26;104.31
51305;HTU21D;37392;50.964;6.952;2023-02-19T17:08:52;10.24;104.82
51305;HTU21D;37392;50.964;6.952;2023-02-19T17:11:19;10.23;105.79
51305;HTU21D;37392;50.964;6.952;2023-02-19T17:13:45;10.20;105.98
51305;HTU21D;37392;50.964;6.952;2023-02-19T17:16:22;10.15;107.75
51305;HTU21D;37392;50.964;6.952;2023-02-19T17:18:51;10.05;107.89
51305;HTU21D;37392;50.964;6.952;2023-02-19T17:21:23;10.00;108.98
51305;HTU21D;37392;50.964;6.952;2023-02-19T17:23:50;9.94;108.69
51305;HTU21D;37392;50.964;6.952;2023-02-19T17:26:26;9.90;108.13
51305;HTU21D;37392;50.964;6.952;2023-02-19T17:29:00;9.92;107.91
51305;HTU21D;37392;50.964;6.952;2023-02-19T17:31:28;9.91;107.24
51305;HTU21D;37392;50.964;6.952;2023-02-19T17:33:53;9.88;107.27
51305;HTU21D;37392;50.964;6.952;2023-02-19T17:36:25;9.89;105.98
51305;HTU21D;37392;50.964;6.952;2023-02-19T17:38:59;9.91;104.37
51305;HTU21D;37392;50.964;6.952;2023-02-19T17:41:31;9.85;102.67
51305;HTU21D;37392;50.964;6.952;2023-02-19T17:43:57;9.83;101.07